createdAt,value
2023-01-29T00:01:10.603Z,6.20
2023-01-29T00:03:39.834Z,6.10
2023-01-29T00:06:24.352Z,6.20
2023-01-29T00:08:52.449Z,6.20
2023-01-29T00:11:24.125Z,6.10
2023-01-29T00:13:53.077Z,6.10
2023-01-29T00:16:21.055Z,6.10
2023-01-29T00:18:51.473Z,6.10
2023-01-29T00:21:26.649Z,6.10
2023-01-29T00:24:02.865Z,6.10
2023-01-29T00:26:38.023Z,6.10
2023-01-29T00:29:06.851Z,6.10
2023-01-29T00:31:34.906Z,6.10
2023-01-29T00:34:03.749Z,6.10
2023-01-29T00:36:31.633Z,6.10
2023-01-29T00:39:02.793Z,6.10
2023-01-29T00:41:51.666Z,6.10
2023-01-29T00:44:39.723Z,6.10
2023-01-29T00:47:30.990Z,6.00
2023-01-29T00:49:59.639Z,5.90
2023-01-29T00:52:28.226Z,6.00
2023-01-29T00:54:58.258Z,6.00
2023-01-29T00:57:34.571Z,6.00
2023-01-29T01:00:11.548Z,6.00
2023-01-29T01:02:57.842Z,6.00
2023-01-29T01:05:32.468Z,6.00
2023-01-29T01:08:02.462Z,6.00
2023-01-29T01:10:36.930Z,6.00
2023-01-29T01:13:14.233Z,6.00
2023-01-29T01:15:42.003Z,6.00
2023-01-29T01:18:15.557Z,6.00
2023-01-29T01:20:43.733Z,6.00
2023-01-29T01:23:11.407Z,6.00
2023-01-29T01:25:39.108Z,6.00
2023-01-29T01:28:08.425Z,5.90
2023-01-29T01:30:36.074Z,5.90
2023-01-29T01:33:11.092Z,6.00
2023-01-29T01:35:40.988Z,6.00
2023-01-29T01:38:08.676Z,5.90
2023-01-29T01:40:37.878Z,5.90
2023-01-29T01:43:06.321Z,5.90
2023-01-29T01:45:35.508Z,5.90
2023-01-29T01:48:26.722Z,5.90
2023-01-29T01:51:03.566Z,5.90
2023-01-29T01:53:59.080Z,5.90
2023-01-29T01:56:40.917Z,5.90
2023-01-29T01:59:15.127Z,5.90
2023-01-29T02:01:50.252Z,5.80
2023-01-29T02:04:42.677Z,5.90
2023-01-29T02:07:34.397Z,5.80
2023-01-29T02:10:12.969Z,5.80
2023-01-29T02:12:42.198Z,5.80
2023-01-29T02:17:59.605Z,5.80
2023-01-29T02:20:33.538Z,5.80
2023-01-29T02:23:13.648Z,5.80
2023-01-29T02:26:04.353Z,5.80
2023-01-29T02:28:54.662Z,5.90
2023-01-29T02:32:10.314Z,5.80
2023-01-29T02:35:27.515Z,5.90
2023-01-29T02:37:56.320Z,5.80
2023-01-29T02:40:31.521Z,5.80
2023-01-29T02:43:09.099Z,5.80
2023-01-29T02:45:43.975Z,5.80
2023-01-29T02:48:29.740Z,5.80
2023-01-29T02:51:05.894Z,6.00
2023-01-29T02:53:50.489Z,5.80
2023-01-29T02:56:26.804Z,5.80
2023-01-29T02:59:07.585Z,5.80
2023-01-29T03:01:48.721Z,5.80
2023-01-29T03:04:22.691Z,5.80
2023-01-29T03:07:05.131Z,5.90
2023-01-29T03:09:48.509Z,5.90
2023-01-29T03:12:34.309Z,5.90
2023-01-29T03:15:17.687Z,5.90
2023-01-29T03:18:28.353Z,5.90
2023-01-29T03:21:29.230Z,5.80
2023-01-29T03:24:17.797Z,5.80
2023-01-29T03:27:05.029Z,5.90
2023-01-29T03:29:57.331Z,5.90
2023-01-29T03:32:33.009Z,5.80
2023-01-29T03:35:09.733Z,5.90
2023-01-29T03:37:49.196Z,5.80
2023-01-29T03:40:17.768Z,5.90
2023-01-29T03:43:08.097Z,5.90
2023-01-29T03:45:58.366Z,5.80
2023-01-29T03:48:47.705Z,5.90
2023-01-29T03:51:27.474Z,5.90
2023-01-29T03:54:19.038Z,5.90
2023-01-29T03:56:57.969Z,5.90
2023-01-29T03:59:38.946Z,5.90
2023-01-29T04:02:43.427Z,5.90
2023-01-29T04:05:21.057Z,5.90
2023-01-29T04:08:10.595Z,5.90
2023-01-29T04:10:41.598Z,5.90
2023-01-29T04:13:20.215Z,5.90
2023-01-29T04:15:58.177Z,5.90
2023-01-29T04:18:48.459Z,5.90
2023-01-29T04:21:19.074Z,5.90
2023-01-29T04:23:46.813Z,5.90
2023-01-29T04:26:23.125Z,5.90
2023-01-29T04:29:09.957Z,5.90
2023-01-29T04:32:03.968Z,5.90
2023-01-29T04:35:01.122Z,5.90
2023-01-29T04:37:57.115Z,5.90
2023-01-29T04:40:42.253Z,5.90
2023-01-29T04:43:28.159Z,5.90
2023-01-29T04:46:31.809Z,5.90
2023-01-29T04:49:19.096Z,5.90
2023-01-29T04:52:08.644Z,5.90
2023-01-29T04:54:55.652Z,5.90
2023-01-29T04:57:50.521Z,5.90
2023-01-29T05:00:26.116Z,5.90
2023-01-29T05:03:00.684Z,5.90
2023-01-29T05:05:28.902Z,5.90
2023-01-29T05:08:01.170Z,5.90
2023-01-29T05:10:29.625Z,5.90
2023-01-29T05:13:03.837Z,5.90
2023-01-29T05:15:48.743Z,5.90
2023-01-29T05:18:17.836Z,5.90
2023-01-29T05:20:47.044Z,5.90
2023-01-29T05:23:28.645Z,5.90
2023-01-29T05:25:57.587Z,5.90
2023-01-29T05:31:15.364Z,5.90
2023-01-29T05:33:47.141Z,5.90
2023-01-29T05:36:18.500Z,5.90
2023-01-29T05:38:50.624Z,5.90
2023-01-29T05:41:37.048Z,5.90
2023-01-29T05:44:23.624Z,5.90
2023-01-29T05:47:21.489Z,5.90
2023-01-29T05:50:07.012Z,6.00
2023-01-29T05:55:34.298Z,5.90
2023-01-29T05:58:12.427Z,5.90
2023-01-29T06:00:44.317Z,5.90
2023-01-29T06:03:13.384Z,5.90
2023-01-29T06:05:41.667Z,5.90
2023-01-29T06:08:13.739Z,5.90
2023-01-29T06:10:47.862Z,6.00
2023-01-29T06:13:29.699Z,6.00
2023-01-29T06:16:00.948Z,6.00
2023-01-29T06:18:29.328Z,6.00
2023-01-29T06:21:20.216Z,6.00
2023-01-29T06:23:52.206Z,6.00
2023-01-29T06:26:24.920Z,6.00
2023-01-29T06:28:55.646Z,6.00
2023-01-29T06:31:37.379Z,6.00
2023-01-29T06:34:13.532Z,6.00
2023-01-29T06:36:49.676Z,6.00
2023-01-29T06:39:33.015Z,6.00
2023-01-29T06:42:03.394Z,6.00
2023-01-29T06:44:40.998Z,6.00
2023-01-29T06:47:15.567Z,6.00
2023-01-29T06:49:57.139Z,6.00
2023-01-29T06:52:32.985Z,6.00
2023-01-29T06:55:07.201Z,6.00
2023-01-29T06:57:41.717Z,6.00
2023-01-29T07:00:26.541Z,6.00
2023-01-29T07:02:55.558Z,6.00
2023-01-29T07:05:29.473Z,6.00
2023-01-29T07:07:57.789Z,6.00
2023-01-29T07:10:36.196Z,6.00
2023-01-29T07:13:12.847Z,6.00
2023-01-29T07:15:48.805Z,6.00
2023-01-29T07:18:17.159Z,6.00
2023-01-29T07:20:52.260Z,6.00
2023-01-29T07:26:14.924Z,6.00
2023-01-29T07:28:48.259Z,6.00
2023-01-29T07:31:21.577Z,6.00
2023-01-29T07:33:56.764Z,5.90
2023-01-29T07:36:32.457Z,5.90
2023-01-29T07:39:11.242Z,5.90
2023-01-29T07:42:00.855Z,5.80
2023-01-29T07:44:32.534Z,5.80
2023-01-29T07:47:00.640Z,5.90
2023-01-29T07:49:31.895Z,5.80
2023-01-29T07:52:08.775Z,5.80
2023-01-29T07:54:36.982Z,5.80
2023-01-29T07:57:05.258Z,5.90
2023-01-29T07:59:32.910Z,5.90
2023-01-29T08:02:00.628Z,5.90
2023-01-29T08:04:29.345Z,5.90
2023-01-29T08:06:58.566Z,5.90
2023-01-29T08:09:26.312Z,6.00
2023-01-29T08:11:56.802Z,6.00
2023-01-29T08:14:24.913Z,6.00
2023-01-29T08:16:52.523Z,6.00
2023-01-29T08:19:20.307Z,6.00
2023-01-29T08:21:49.737Z,6.00
2023-01-29T08:24:18.899Z,6.00
2023-01-29T08:26:46.716Z,6.10
2023-01-29T08:29:14.472Z,6.10
2023-01-29T08:31:43.198Z,6.10
2023-01-29T08:34:11.278Z,6.10
2023-01-29T08:36:39.452Z,6.20
2023-01-29T08:39:07.165Z,6.20
2023-01-29T08:41:35.111Z,6.30
2023-01-29T08:44:11.027Z,6.30
2023-01-29T08:46:41.065Z,6.40
2023-01-29T08:49:10.556Z,6.50
2023-01-29T08:51:38.547Z,6.50
2023-01-29T08:54:06.380Z,6.60
2023-01-29T08:56:44.256Z,6.70
2023-01-29T08:59:35.470Z,6.80
2023-01-29T09:02:06.974Z,6.70
2023-01-29T09:05:09.069Z,6.80
2023-01-29T09:07:42.907Z,6.80
2023-01-29T09:10:17.762Z,6.80
2023-01-29T09:12:50.638Z,6.80
2023-01-29T09:15:25.753Z,6.90
2023-01-29T09:17:59.277Z,6.90
2023-01-29T09:20:41.109Z,6.90
2023-01-29T09:23:12.229Z,6.90
2023-01-29T09:25:42.771Z,7.00
2023-01-29T09:28:12.387Z,7.00
2023-01-29T09:30:40.427Z,7.00
2023-01-29T09:33:18.337Z,7.00
2023-01-29T09:35:47.142Z,7.30
2023-01-29T09:38:15.019Z,7.50
2023-01-29T09:41:28.356Z,7.60
2023-01-29T09:44:06.160Z,7.70
2023-01-29T09:46:49.238Z,7.70
2023-01-29T09:50:01.122Z,7.70
2023-01-29T09:52:49.152Z,7.80
2023-01-29T09:55:26.396Z,7.90
2023-01-29T09:57:58.967Z,7.90
2023-01-29T10:00:31.821Z,8.00
2023-01-29T10:03:32.767Z,8.00
2023-01-29T10:06:34.861Z,7.90
2023-01-29T10:09:44.082Z,7.90
2023-01-29T10:12:26.194Z,7.80
2023-01-29T10:14:54.065Z,7.70
2023-01-29T10:17:43.471Z,7.70
2023-01-29T10:20:31.692Z,7.70
2023-01-29T10:23:20.563Z,7.60
2023-01-29T10:25:49.820Z,7.70
2023-01-29T10:28:36.966Z,7.60
2023-01-29T10:31:21.632Z,7.70
2023-01-29T10:34:01.955Z,7.60
2023-01-29T10:36:57.261Z,7.60
2023-01-29T10:39:26.603Z,7.70
2023-01-29T10:42:15.875Z,7.70
2023-01-29T10:44:43.439Z,7.60
2023-01-29T10:47:12.246Z,7.70
2023-01-29T10:50:31.258Z,7.70
2023-01-29T10:53:11.602Z,7.70
2023-01-29T10:56:13.945Z,7.80
2023-01-29T10:59:01.451Z,7.80
2023-01-29T11:01:29.256Z,7.90
2023-01-29T11:04:02.845Z,7.90
2023-01-29T11:06:36.301Z,7.90
2023-01-29T11:09:16.043Z,8.00
2023-01-29T11:12:04.616Z,7.90
2023-01-29T11:14:48.954Z,7.90
2023-01-29T11:17:18.093Z,7.90
2023-01-29T11:19:47.920Z,7.90
2023-01-29T11:22:35.471Z,7.90
2023-01-29T11:25:18.530Z,7.90
2023-01-29T11:27:58.632Z,7.90
2023-01-29T11:30:31.039Z,7.90
2023-01-29T11:33:20.618Z,8.00
2023-01-29T11:35:57.014Z,8.00
2023-01-29T11:38:30.721Z,8.00
2023-01-29T11:41:07.298Z,8.00
2023-01-29T11:43:35.075Z,8.10
2023-01-29T11:46:11.467Z,8.10
2023-01-29T11:48:59.417Z,8.10
2023-01-29T11:51:37.853Z,8.10
2023-01-29T11:54:19.822Z,8.10
2023-01-29T11:56:48.429Z,8.10
2023-01-29T11:59:48.643Z,8.20
2023-01-29T12:02:42.109Z,8.20
2023-01-29T12:05:23.195Z,8.20
2023-01-29T12:08:00.127Z,8.20
2023-01-29T12:10:56.750Z,8.10
2023-01-29T12:13:30.623Z,8.10
2023-01-29T12:16:23.649Z,8.10
2023-01-29T12:19:34.312Z,8.10
2023-01-29T12:22:15.435Z,8.00
2023-01-29T12:25:23.050Z,8.00
2023-01-29T12:28:09.632Z,8.00
2023-01-29T12:31:08.823Z,7.90
2023-01-29T12:34:03.631Z,7.90
2023-01-29T12:36:44.061Z,7.90
2023-01-29T12:39:17.016Z,7.90
2023-01-29T12:42:22.466Z,8.00
2023-01-29T12:45:12.399Z,8.10
2023-01-29T12:50:40.434Z,8.20
2023-01-29T12:53:30.909Z,8.30
2023-01-29T12:56:31.358Z,8.40
2023-01-29T12:59:40.361Z,8.40
2023-01-29T13:02:37.272Z,8.40
2023-01-29T13:05:33.678Z,8.40
2023-01-29T13:08:18.482Z,8.40
2023-01-29T13:10:56.561Z,8.40
2023-01-29T13:14:01.695Z,8.40
2023-01-29T13:16:46.699Z,8.40
2023-01-29T13:19:48.512Z,8.40
2023-01-29T13:22:37.289Z,8.50
2023-01-29T13:25:26.533Z,8.50
2023-01-29T13:27:54.476Z,8.60
2023-01-29T13:30:45.067Z,8.60
2023-01-29T13:33:25.426Z,8.70
2023-01-29T13:36:11.589Z,8.70
2023-01-29T13:39:05.669Z,8.80
2023-01-29T13:41:47.862Z,8.80
2023-01-29T13:44:39.398Z,8.80
2023-01-29T13:47:18.830Z,8.80
2023-01-29T13:50:26.390Z,8.90
2023-01-29T13:53:20.307Z,8.90
2023-01-29T13:58:59.069Z,8.90
2023-01-29T14:02:14.998Z,9.00
2023-01-29T14:04:46.558Z,9.00
2023-01-29T14:07:45.542Z,9.00
2023-01-29T14:10:22.809Z,9.00
2023-01-29T14:13:20.259Z,9.00
2023-01-29T14:15:57.163Z,8.90
2023-01-29T14:18:32.716Z,8.90
2023-01-29T14:21:20.242Z,8.90
2023-01-29T14:24:19.633Z,8.90
2023-01-29T14:26:49.563Z,8.90
2023-01-29T14:29:34.739Z,8.90
2023-01-29T14:32:27.024Z,9.00
2023-01-29T14:35:10.773Z,9.00
2023-01-29T14:38:03.164Z,9.00
2023-01-29T14:40:37.364Z,9.10
2023-01-29T14:43:30.472Z,9.10
2023-01-29T14:46:33.377Z,9.20
2023-01-29T14:49:12.257Z,9.30
2023-01-29T14:52:17.497Z,9.30
2023-01-29T14:54:57.052Z,9.30
2023-01-29T14:57:34.036Z,9.20
2023-01-29T15:00:34.151Z,9.20
2023-01-29T15:03:20.865Z,9.20
2023-01-29T15:06:09.383Z,9.20
2023-01-29T15:09:28.798Z,9.20
2023-01-29T15:12:33.924Z,9.20
2023-01-29T15:15:24.099Z,9.20
2023-01-29T15:18:31.746Z,9.20
2023-01-29T15:21:28.006Z,9.10
2023-01-29T15:24:20.132Z,9.10
2023-01-29T15:27:23.894Z,9.00
2023-01-29T15:30:06.530Z,9.00
2023-01-29T15:32:43.200Z,9.00
2023-01-29T15:38:54.179Z,8.90
2023-01-29T15:41:40.365Z,9.00
2023-01-29T15:44:27.462Z,8.90
2023-01-29T15:46:59.671Z,8.90
2023-01-29T15:50:00.717Z,9.00
2023-01-29T15:52:42.163Z,9.00
2023-01-29T15:55:24.256Z,9.00
2023-01-29T15:57:59.064Z,9.00
2023-01-29T16:00:46.612Z,9.00
2023-01-29T16:06:07.480Z,9.10
2023-01-29T16:08:56.518Z,9.00
2023-01-29T16:11:28.584Z,9.00
2023-01-29T16:14:25.659Z,9.00
2023-01-29T16:17:11.352Z,9.00
2023-01-29T16:19:40.762Z,8.90
2023-01-29T16:22:19.639Z,8.90
2023-01-29T16:24:53.237Z,8.90
2023-01-29T16:27:46.039Z,8.90
2023-01-29T16:30:40.282Z,8.90
2023-01-29T16:33:22.531Z,8.90
2023-01-29T16:36:12.929Z,8.90
2023-01-29T16:39:23.862Z,8.90
2023-01-29T16:46:45.959Z,8.80
2023-01-29T16:50:08.964Z,8.90
2023-01-29T16:53:19.350Z,8.90
2023-01-29T16:56:13.428Z,9.00
2023-01-29T17:03:15.947Z,9.20
2023-01-29T17:05:54.338Z,9.30
2023-01-29T17:08:54.371Z,9.30
2023-01-29T17:12:20.839Z,9.30
2023-01-29T17:15:26.984Z,9.20
2023-01-29T17:18:25.581Z,9.20
2023-01-29T17:20:55.299Z,9.10
2023-01-29T17:23:23.542Z,9.00
2023-01-29T17:26:15.636Z,8.90
2023-01-29T17:29:02.716Z,8.80
2023-01-29T17:31:39.273Z,8.70
2023-01-29T17:34:18.340Z,8.60
2023-01-29T17:37:38.660Z,8.50
2023-01-29T17:40:53.933Z,8.40
2023-01-29T17:43:41.045Z,8.40
2023-01-29T17:46:24.071Z,8.40
2023-01-29T17:48:58.202Z,8.40
2023-01-29T17:52:05.145Z,8.40
2023-01-29T18:00:52.769Z,8.60
2023-01-29T18:08:13.361Z,8.60
2023-01-29T18:09:43.989Z,8.60
2023-01-29T18:17:35.480Z,8.50
2023-01-29T18:24:52.117Z,8.30
2023-01-29T18:27:51.625Z,8.30
2023-01-29T18:31:14.678Z,8.20
2023-01-29T18:34:14.470Z,8.10
2023-01-29T18:37:21.148Z,8.10
2023-01-29T18:40:02.757Z,8.10
2023-01-29T18:43:11.177Z,8.10
2023-01-29T18:45:55.423Z,8.10
2023-01-29T18:48:54.302Z,8.00
2023-01-29T18:51:32.415Z,8.00
2023-01-29T18:54:16.722Z,7.90
2023-01-29T18:58:26.096Z,7.90
2023-01-29T19:00:54.791Z,7.80
2023-01-29T19:04:19.139Z,7.70
2023-01-29T19:07:19.876Z,7.70
2023-01-29T19:13:24.063Z,7.60
2023-01-29T19:16:50.874Z,7.50
2023-01-29T19:20:54.891Z,7.50
2023-01-29T19:27:06.006Z,7.50
2023-01-29T19:30:08.665Z,7.50
2023-01-29T19:32:57.051Z,7.50
2023-01-29T19:36:31.280Z,7.60
2023-01-29T19:49:37.705Z,8.10
2023-01-29T19:52:51.084Z,8.20
2023-01-29T20:11:53.665Z,7.90
2023-01-29T20:18:47.516Z,7.70
2023-01-29T20:21:49.755Z,7.60
2023-01-29T20:25:35.563Z,7.50
2023-01-29T20:28:55.820Z,7.50
2023-01-29T20:32:23.125Z,7.40
2023-01-29T20:35:21.152Z,7.30
2023-01-29T20:39:05.443Z,7.20
2023-01-29T20:42:05.583Z,7.10
2023-01-29T20:45:33.818Z,7.10
2023-01-29T20:48:49.858Z,7.00
2023-01-29T20:51:33.732Z,7.00
2023-01-29T20:54:16.301Z,6.90
2023-01-29T20:58:05.887Z,6.90
2023-01-29T21:00:52.383Z,6.80
2023-01-29T21:03:58.273Z,6.80
2023-01-29T21:06:53.559Z,6.80
2023-01-29T21:10:19.465Z,6.70
2023-01-29T21:12:59.555Z,6.70
2023-01-29T21:15:30.975Z,6.70
2023-01-29T21:18:21.900Z,6.60
2023-01-29T21:21:08.539Z,6.60
2023-01-29T21:24:24.024Z,6.60
2023-01-29T21:27:37.511Z,6.60
2023-01-29T21:31:11.638Z,6.60
2023-01-29T21:37:30.269Z,6.70
2023-01-29T21:39:58.607Z,6.70
2023-01-29T21:43:09.612Z,6.80
2023-01-29T21:46:20.187Z,6.80
2023-01-29T21:48:53.431Z,6.80
2023-01-29T21:51:28.157Z,6.90
2023-01-29T21:58:26.365Z,7.00
2023-01-29T22:01:37.731Z,7.00
2023-01-29T22:04:38.844Z,7.00
2023-01-29T22:07:10.151Z,7.00
2023-01-29T22:09:38.690Z,7.00
2023-01-29T22:12:08.042Z,7.00
2023-01-29T22:15:07.366Z,7.00
2023-01-29T22:17:41.350Z,7.00
2023-01-29T22:20:22.227Z,7.00
2023-01-29T22:22:50.195Z,7.00
2023-01-29T22:25:20.226Z,7.10
2023-01-29T22:27:56.950Z,7.10
2023-01-29T22:30:33.134Z,7.10
2023-01-29T22:33:02.091Z,7.10
2023-01-29T22:35:30.964Z,7.00
2023-01-29T22:37:58.813Z,6.90
2023-01-29T22:40:26.945Z,6.80
2023-01-29T22:42:58.371Z,6.70
2023-01-29T22:45:26.204Z,6.70
2023-01-29T22:47:53.964Z,6.60
2023-01-29T22:50:23.183Z,6.60
2023-01-29T22:52:54.027Z,6.50
2023-01-29T22:55:22.516Z,6.50
2023-01-29T22:57:54.226Z,6.40
2023-01-29T23:00:25.398Z,6.40
2023-01-29T23:02:53.363Z,6.40
2023-01-29T23:05:33.327Z,6.40
2023-01-29T23:08:01.046Z,6.60
2023-01-29T23:10:29.948Z,6.30
2023-01-29T23:13:01.042Z,6.30
2023-01-29T23:15:29.349Z,6.30
2023-01-29T23:17:57.330Z,6.30
2023-01-29T23:20:28.559Z,6.30
2023-01-29T23:22:56.865Z,6.30
2023-01-29T23:25:45.979Z,6.30
2023-01-29T23:28:21.136Z,6.30
2023-01-29T23:30:52.170Z,6.30
2023-01-29T23:33:20.392Z,6.30
2023-01-29T23:35:51.513Z,6.30
2023-01-29T23:38:33.697Z,6.30
2023-01-29T23:41:08.964Z,6.30
2023-01-29T23:43:41.476Z,6.30
2023-01-29T23:46:12.903Z,6.30
2023-01-29T23:48:45.849Z,6.30
2023-01-29T23:51:20.011Z,6.30
2023-01-29T23:54:18.028Z,6.30
2023-01-29T23:56:59.428Z,6.40
2023-01-29T23:59:36.575Z,6.40
